createdAt,value
2017-10-03T00:01:47.142Z,99.90
2017-10-03T00:04:14.615Z,99.90
2017-10-03T00:06:42.071Z,99.90
2017-10-03T00:09:12.758Z,99.90
2017-10-03T00:11:40.228Z,99.90
2017-10-03T00:14:07.695Z,99.90
2017-10-03T00:16:35.921Z,99.90
2017-10-03T00:19:04.168Z,99.90
2017-10-03T00:21:31.626Z,99.90
2017-10-03T00:23:59.100Z,99.90
2017-10-03T00:26:27.377Z,99.90
2017-10-03T00:28:55.614Z,99.90
2017-10-03T00:31:23.108Z,99.90
2017-10-03T00:33:50.579Z,99.90
2017-10-03T00:36:18.815Z,99.90
2017-10-03T00:38:46.304Z,99.90
2017-10-03T00:41:13.766Z,99.90
2017-10-03T00:43:41.843Z,99.90
2017-10-03T00:46:10.091Z,99.90
2017-10-03T00:48:37.559Z,99.90
2017-10-03T00:51:05.032Z,99.90
2017-10-03T00:53:33.263Z,99.90
2017-10-03T00:56:00.731Z,99.90
2017-10-03T00:58:28.198Z,99.90
2017-10-03T01:01:08.155Z,99.90
2017-10-03T01:03:35.642Z,99.90
2017-10-03T01:06:03.120Z,99.90
2017-10-03T01:08:31.343Z,99.90
2017-10-03T01:10:58.818Z,99.90
2017-10-03T01:13:26.395Z,99.90
2017-10-03T01:15:53.880Z,99.90
2017-10-03T01:18:22.103Z,99.90
2017-10-03T01:20:49.570Z,99.90
2017-10-03T01:23:17.034Z,99.90
2017-10-03T01:25:44.587Z,99.90
2017-10-03T01:28:12.191Z,99.90
2017-10-03T01:30:40.150Z,99.90
2017-10-03T01:33:08.379Z,99.90
2017-10-03T01:35:35.858Z,99.90
2017-10-03T01:38:06.046Z,99.90
2017-10-03T01:40:33.543Z,99.90
2017-10-03T01:43:01.118Z,99.90
2017-10-03T01:45:29.362Z,99.90
2017-10-03T01:47:56.823Z,99.90
2017-10-03T01:50:24.297Z,99.90
2017-10-03T01:52:53.270Z,99.90
2017-10-03T01:55:20.749Z,99.90
2017-10-03T01:57:48.214Z,99.90
2017-10-03T02:00:15.704Z,99.90
2017-10-03T02:02:43.173Z,99.90
2017-10-03T02:05:10.639Z,99.90
2017-10-03T02:07:38.143Z,99.90
2017-10-03T02:10:05.691Z,99.90
2017-10-03T02:12:33.170Z,99.90
2017-10-03T02:15:00.644Z,99.90
2017-10-03T02:17:28.871Z,99.90
2017-10-03T02:19:56.349Z,99.90
2017-10-03T02:22:23.815Z,99.90
2017-10-03T02:24:51.283Z,99.90
2017-10-03T02:27:18.827Z,99.90
2017-10-03T02:29:47.909Z,99.90
2017-10-03T02:32:15.406Z,99.90
2017-10-03T02:34:43.678Z,99.90
2017-10-03T02:37:11.918Z,99.90
2017-10-03T02:39:39.374Z,99.90
2017-10-03T02:42:06.946Z,99.90
2017-10-03T02:44:34.405Z,99.90
2017-10-03T02:47:01.879Z,99.90
2017-10-03T02:49:29.431Z,99.90
2017-10-03T02:51:56.899Z,99.90
2017-10-03T02:54:24.356Z,99.90
2017-10-03T02:56:51.908Z,99.90
2017-10-03T02:59:19.366Z,99.90
2017-10-03T03:01:46.923Z,99.90
2017-10-03T03:04:14.391Z,99.90
2017-10-03T03:06:41.874Z,99.90
2017-10-03T03:09:10.098Z,99.90
2017-10-03T03:11:37.697Z,99.90
2017-10-03T03:14:05.231Z,99.90
2017-10-03T03:16:32.700Z,99.90
2017-10-03T03:19:01.675Z,99.90
2017-10-03T03:21:29.151Z,99.90
2017-10-03T03:23:58.153Z,99.90
2017-10-03T03:26:25.730Z,99.90
2017-10-03T03:28:53.984Z,99.90
2017-10-03T03:31:22.212Z,99.90
2017-10-03T03:33:49.687Z,99.90
2017-10-03T03:36:17.179Z,99.90
2017-10-03T03:38:44.663Z,99.90
2017-10-03T03:41:12.882Z,99.90
2017-10-03T03:43:40.359Z,99.90
2017-10-03T03:46:07.814Z,99.90
2017-10-03T03:48:35.382Z,99.90
2017-10-03T03:51:02.955Z,99.90
2017-10-03T03:53:30.429Z,99.90
2017-10-03T03:55:58.667Z,99.80
2017-10-03T03:58:26.134Z,99.80
2017-10-03T04:03:26.488Z,99.90
2017-10-03T04:05:53.959Z,99.90
2017-10-03T04:08:21.423Z,99.90
2017-10-03T04:10:48.896Z,99.90
2017-10-03T04:13:16.374Z,99.90
2017-10-03T04:15:43.846Z,99.90
2017-10-03T04:18:12.080Z,99.90
2017-10-03T04:20:39.543Z,99.90
2017-10-03T04:23:07.005Z,99.90
2017-10-03T04:25:34.468Z,99.90
2017-10-03T04:28:01.930Z,99.90
2017-10-03T04:30:29.408Z,99.90
2017-10-03T04:32:57.635Z,99.90
2017-10-03T04:35:25.107Z,99.90
2017-10-03T04:37:52.576Z,99.90
2017-10-03T04:40:20.053Z,99.90
2017-10-03T04:42:48.285Z,99.90
2017-10-03T04:45:15.759Z,99.90
2017-10-03T04:47:43.221Z,99.90
2017-10-03T04:50:10.702Z,99.90
2017-10-03T04:52:38.934Z,99.90
2017-10-03T04:55:06.403Z,99.90
2017-10-03T04:57:34.629Z,99.90
2017-10-03T05:00:02.863Z,99.90
2017-10-03T05:02:30.334Z,99.90
2017-10-03T05:04:57.790Z,99.90
2017-10-03T05:07:25.276Z,99.90
2017-10-03T05:09:53.502Z,99.90
2017-10-03T05:12:20.975Z,99.90
2017-10-03T05:14:48.446Z,99.90
2017-10-03T05:17:15.923Z,99.90
2017-10-03T05:19:44.150Z,99.90
2017-10-03T05:22:12.394Z,99.90
2017-10-03T05:24:39.862Z,99.90
2017-10-03T05:27:07.325Z,99.90
2017-10-03T05:29:34.782Z,99.90
2017-10-03T05:32:02.274Z,99.90
2017-10-03T05:34:29.729Z,99.90
2017-10-03T05:36:57.200Z,99.90
2017-10-03T05:39:24.659Z,99.90
2017-10-03T05:41:52.149Z,99.90
2017-10-03T05:44:19.637Z,99.90
2017-10-03T05:46:47.099Z,99.90
2017-10-03T05:49:14.571Z,99.90
2017-10-03T05:51:42.032Z,99.90
2017-10-03T05:54:10.274Z,99.90
2017-10-03T05:56:37.753Z,99.90
2017-10-03T05:59:05.231Z,99.90
2017-10-03T06:01:32.685Z,99.90
2017-10-03T06:04:00.166Z,99.90
2017-10-03T06:06:28.437Z,99.90
2017-10-03T06:08:56.107Z,99.90
2017-10-03T06:11:23.603Z,99.90
2017-10-03T06:13:51.858Z,99.90
2017-10-03T06:16:19.320Z,99.90
2017-10-03T06:18:47.552Z,99.90
2017-10-03T06:21:15.019Z,99.90
2017-10-03T06:23:42.478Z,99.90
2017-10-03T06:26:11.320Z,99.90
2017-10-03T06:28:38.845Z,99.90
2017-10-03T06:31:06.415Z,99.90
2017-10-03T06:33:34.639Z,99.90
2017-10-03T06:36:02.118Z,99.90
2017-10-03T06:38:29.579Z,99.90
2017-10-03T06:40:57.051Z,99.90
2017-10-03T06:43:24.514Z,99.90
2017-10-03T06:45:51.987Z,99.90
2017-10-03T06:48:20.268Z,99.90
2017-10-03T06:50:48.515Z,99.90
2017-10-03T06:53:15.983Z,99.90
2017-10-03T06:55:43.551Z,99.90
2017-10-03T06:58:11.010Z,99.90
2017-10-03T07:00:38.492Z,99.90
2017-10-03T07:03:06.753Z,99.90
2017-10-03T07:05:34.229Z,99.90
2017-10-03T07:08:01.705Z,99.90
2017-10-03T07:10:29.935Z,99.90
2017-10-03T07:12:57.407Z,99.90
2017-10-03T07:15:25.008Z,99.90
2017-10-03T07:17:52.470Z,99.90
2017-10-03T07:20:19.943Z,99.90
2017-10-03T07:22:47.497Z,99.90
2017-10-03T07:25:14.979Z,99.90
2017-10-03T07:27:43.205Z,99.90
2017-10-03T07:30:10.684Z,99.90
2017-10-03T07:32:38.149Z,99.90
2017-10-03T07:35:05.610Z,99.90
2017-10-03T07:37:33.072Z,99.90
2017-10-03T07:40:01.335Z,99.90
2017-10-03T07:42:29.592Z,99.90
2017-10-03T07:44:57.049Z,99.90
2017-10-03T07:47:24.531Z,99.70
2017-10-03T07:49:52.085Z,99.90
2017-10-03T07:52:19.556Z,99.70
2017-10-03T07:54:47.106Z,99.90
2017-10-03T07:57:14.569Z,99.50
2017-10-03T07:59:42.047Z,99.70
2017-10-03T08:02:10.296Z,99.70
2017-10-03T08:04:37.759Z,99.40
2017-10-03T08:07:05.246Z,99.60
2017-10-03T08:09:33.486Z,99.50
2017-10-03T08:12:00.942Z,99.50
2017-10-03T08:14:28.507Z,98.80
2017-10-03T08:16:56.075Z,99.10
2017-10-03T08:19:23.537Z,99.20
2017-10-03T08:21:51.020Z,98.50
2017-10-03T08:24:19.243Z,98.90
2017-10-03T08:26:46.818Z,98.90
2017-10-03T08:29:14.391Z,98.90
2017-10-03T08:31:43.367Z,98.90
2017-10-03T08:34:10.835Z,98.90
2017-10-03T08:36:38.387Z,99.30
2017-10-03T08:39:05.854Z,99.10
2017-10-03T08:41:34.138Z,99.10
2017-10-03T08:44:01.594Z,99.20
2017-10-03T08:46:29.087Z,98.80
2017-10-03T08:48:56.570Z,98.90
2017-10-03T08:51:24.035Z,99.20
2017-10-03T08:53:51.498Z,99.20
2017-10-03T08:56:18.962Z,99.20
2017-10-03T08:58:46.442Z,98.60
2017-10-03T09:01:15.437Z,98.90
2017-10-03T09:03:43.690Z,98.60
2017-10-03T09:06:11.163Z,98.70
2017-10-03T09:08:38.635Z,98.80
2017-10-03T09:11:06.135Z,98.40
2017-10-03T09:13:33.627Z,98.70
2017-10-03T09:16:01.109Z,98.80
2017-10-03T09:18:28.671Z,98.80
2017-10-03T09:20:56.131Z,99.10
2017-10-03T09:23:23.666Z,98.90
2017-10-03T09:25:51.139Z,99.20
2017-10-03T09:28:18.706Z,99.30
2017-10-03T09:30:46.278Z,98.80
2017-10-03T09:33:14.086Z,98.70
2017-10-03T09:35:42.521Z,99.10
2017-10-03T09:38:10.743Z,98.90
2017-10-03T09:40:38.248Z,98.60
2017-10-03T09:43:05.707Z,98.80
2017-10-03T09:45:33.995Z,97.90
2017-10-03T09:48:01.539Z,97.90
2017-10-03T09:50:29.014Z,97.50
2017-10-03T09:52:56.500Z,98.10
2017-10-03T09:55:24.320Z,96.30
2017-10-03T09:57:53.317Z,95.80
2017-10-03T10:00:20.793Z,95.80
2017-10-03T10:02:48.251Z,96.40
2017-10-03T10:05:15.727Z,96.20
2017-10-03T10:07:44.414Z,95.50
2017-10-03T10:10:12.774Z,95.60
2017-10-03T10:12:40.236Z,95.30
2017-10-03T10:15:08.512Z,95.60
2017-10-03T10:17:36.055Z,95.40
2017-10-03T10:20:03.623Z,95.70
2017-10-03T10:22:32.680Z,94.60
2017-10-03T10:25:00.148Z,93.60
2017-10-03T10:27:27.611Z,93.80
2017-10-03T10:29:55.113Z,93.70
2017-10-03T10:32:23.334Z,93.40
2017-10-03T10:34:50.834Z,93.40
2017-10-03T10:37:18.391Z,93.30
2017-10-03T10:39:45.938Z,93.20
2017-10-03T10:42:13.502Z,93.10
2017-10-03T10:44:40.981Z,93.30
2017-10-03T10:47:08.455Z,92.60
2017-10-03T10:49:35.927Z,92.60
2017-10-03T10:52:03.484Z,92.50
2017-10-03T10:54:31.753Z,93.60
2017-10-03T10:56:59.215Z,93.60
2017-10-03T10:59:28.435Z,93.80
2017-10-03T11:01:56.982Z,93.60
2017-10-03T11:04:24.571Z,93.60
2017-10-03T11:06:53.411Z,93.40
2017-10-03T11:09:21.060Z,93.30
2017-10-03T11:11:48.530Z,94.10
2017-10-03T11:14:16.011Z,93.10
2017-10-03T11:16:43.584Z,93.00
2017-10-03T11:19:11.140Z,92.10
2017-10-03T11:21:38.703Z,91.30
2017-10-03T11:24:18.163Z,91.50
2017-10-03T11:26:45.712Z,90.70
2017-10-03T11:29:13.172Z,90.90
2017-10-03T11:31:40.719Z,91.00
2017-10-03T11:34:08.943Z,91.00
2017-10-03T11:36:36.418Z,91.00
2017-10-03T11:39:03.930Z,91.40
2017-10-03T11:41:31.483Z,91.60
2017-10-03T11:43:59.044Z,91.70
2017-10-03T11:46:26.513Z,91.40
2017-10-03T11:48:53.965Z,92.20
2017-10-03T11:51:21.524Z,92.10
2017-10-03T11:53:48.984Z,91.60
2017-10-03T11:56:16.533Z,90.30
2017-10-03T11:58:43.993Z,90.90
2017-10-03T12:01:11.463Z,91.10
2017-10-03T12:03:38.917Z,90.60
2017-10-03T12:06:07.162Z,90.40
2017-10-03T12:08:34.642Z,90.40
2017-10-03T12:11:02.190Z,90.40
2017-10-03T12:13:29.760Z,90.70
2017-10-03T12:15:57.226Z,90.90
2017-10-03T12:18:24.683Z,91.30
2017-10-03T12:20:52.141Z,91.40
2017-10-03T12:23:19.627Z,91.20
2017-10-03T12:25:47.876Z,90.70
2017-10-03T12:28:15.432Z,90.70
2017-10-03T12:30:42.986Z,90.40
2017-10-03T12:33:10.551Z,90.50
2017-10-03T12:35:38.110Z,90.30
2017-10-03T12:38:05.575Z,90.60
2017-10-03T12:40:33.123Z,91.10
2017-10-03T12:43:00.596Z,91.60
2017-10-03T12:45:28.150Z,91.80
2017-10-03T12:47:55.627Z,92.20
2017-10-03T12:50:23.085Z,93.20
2017-10-03T12:52:50.553Z,93.90
2017-10-03T12:55:18.010Z,95.00
2017-10-03T12:57:45.495Z,95.80
2017-10-03T13:00:12.951Z,96.70
2017-10-03T13:02:40.426Z,97.80
2017-10-03T13:05:07.900Z,97.80
2017-10-03T13:07:36.213Z,98.20
2017-10-03T13:10:03.666Z,98.20
2017-10-03T13:12:31.143Z,98.90
2017-10-03T13:14:58.606Z,98.50
2017-10-03T13:17:26.078Z,98.40
2017-10-03T13:19:53.534Z,98.10
2017-10-03T13:22:21.015Z,98.30
2017-10-03T13:24:48.471Z,98.70
2017-10-03T13:27:15.957Z,98.50
2017-10-03T13:29:47.909Z,98.40
2017-10-03T13:32:15.447Z,98.40
2017-10-03T13:34:42.923Z,98.20
2017-10-03T13:37:11.155Z,97.50
2017-10-03T13:39:38.631Z,97.30
2017-10-03T13:42:06.100Z,97.50
2017-10-03T13:44:33.555Z,95.50
2017-10-03T13:47:01.022Z,96.20
2017-10-03T13:49:29.251Z,96.30
2017-10-03T13:51:56.823Z,96.20
2017-10-03T13:54:24.285Z,95.90
2017-10-03T13:56:51.849Z,95.10
2017-10-03T13:59:19.344Z,94.90
2017-10-03T14:01:46.803Z,94.80
2017-10-03T14:04:14.279Z,94.50
2017-10-03T14:06:41.744Z,94.50
2017-10-03T14:09:09.224Z,94.80
2017-10-03T14:11:36.700Z,94.80
2017-10-03T14:14:04.174Z,92.80
2017-10-03T14:16:32.398Z,92.80
2017-10-03T14:19:20.806Z,92.80
2017-10-03T14:21:49.034Z,92.60
2017-10-03T14:24:16.601Z,92.60
2017-10-03T14:26:44.065Z,93.10
2017-10-03T14:29:11.632Z,93.30
2017-10-03T14:31:39.187Z,93.20
2017-10-03T14:34:06.655Z,93.20
2017-10-03T14:36:34.137Z,93.20
2017-10-03T14:39:02.361Z,93.50
2017-10-03T14:41:29.848Z,93.50
2017-10-03T14:43:57.310Z,93.40
2017-10-03T14:46:25.569Z,92.30
2017-10-03T14:48:53.038Z,92.30
2017-10-03T14:51:20.496Z,92.50
2017-10-03T14:53:47.979Z,92.60
2017-10-03T14:56:15.439Z,92.90
2017-10-03T14:58:42.902Z,92.70
2017-10-03T15:01:11.130Z,92.90
2017-10-03T15:03:38.760Z,92.90
2017-10-03T15:06:06.227Z,92.80
2017-10-03T15:08:33.704Z,92.60
2017-10-03T15:11:01.378Z,92.90
2017-10-03T15:13:28.882Z,92.30
2017-10-03T15:15:57.118Z,91.50
2017-10-03T15:18:24.595Z,91.50
2017-10-03T15:20:52.075Z,91.60
2017-10-03T15:23:20.312Z,91.50
2017-10-03T15:25:47.775Z,91.50
2017-10-03T15:28:15.957Z,91.70
2017-10-03T15:30:43.421Z,91.60
2017-10-03T15:33:11.107Z,91.60
2017-10-03T15:35:38.579Z,91.50
2017-10-03T15:38:06.050Z,91.70
2017-10-03T15:40:33.514Z,91.80
2017-10-03T15:43:01.738Z,92.40
2017-10-03T15:45:29.230Z,92.40
2017-10-03T15:47:56.725Z,92.50
2017-10-03T15:50:24.243Z,92.50
2017-10-03T15:52:51.805Z,92.90
2017-10-03T15:55:19.287Z,93.30
2017-10-03T15:57:47.514Z,93.80
2017-10-03T16:00:14.986Z,93.80
2017-10-03T16:02:42.461Z,94.10
2017-10-03T16:05:09.931Z,94.50
2017-10-03T16:07:38.167Z,94.80
2017-10-03T16:10:05.629Z,94.70
2017-10-03T16:12:33.702Z,95.00
2017-10-03T16:15:01.208Z,94.90
2017-10-03T16:17:28.741Z,95.00
2017-10-03T16:19:56.255Z,95.10
2017-10-03T16:22:23.717Z,95.40
2017-10-03T16:24:51.219Z,95.30
2017-10-03T16:27:18.672Z,95.40
2017-10-03T16:29:46.148Z,95.60
2017-10-03T16:32:13.606Z,95.20
2017-10-03T16:34:41.187Z,95.30
2017-10-03T16:37:08.656Z,95.50
2017-10-03T16:39:36.119Z,95.80
2017-10-03T16:42:04.351Z,96.10
2017-10-03T16:44:31.810Z,96.10
2017-10-03T16:46:59.286Z,96.00
2017-10-03T16:49:26.750Z,96.20
2017-10-03T16:51:54.219Z,96.50
2017-10-03T16:54:21.679Z,98.10
2017-10-03T16:56:49.910Z,98.20
2017-10-03T16:59:17.371Z,98.10
2017-10-03T17:01:44.847Z,98.60
2017-10-03T17:04:12.303Z,98.60
2017-10-03T17:06:39.775Z,98.80
2017-10-03T17:09:07.230Z,98.50
2017-10-03T17:11:34.694Z,98.50
2017-10-03T17:14:02.154Z,99.00
2017-10-03T17:16:29.619Z,99.20
2017-10-03T17:18:57.083Z,99.50
2017-10-03T17:21:26.035Z,99.90
2017-10-03T17:23:53.592Z,99.90
2017-10-03T17:26:21.131Z,99.90
2017-10-03T17:28:49.364Z,99.90
2017-10-03T17:31:16.834Z,99.90
2017-10-03T17:33:45.053Z,99.90
2017-10-03T17:36:12.535Z,99.90
2017-10-03T17:38:39.986Z,99.90
2017-10-03T17:41:07.462Z,99.90
2017-10-03T17:43:34.922Z,99.90
2017-10-03T17:46:02.382Z,99.90
2017-10-03T17:48:29.845Z,99.90
2017-10-03T17:50:57.317Z,99.90
2017-10-03T17:53:25.545Z,99.90
2017-10-03T17:55:53.011Z,99.90
2017-10-03T17:58:20.496Z,99.90
2017-10-03T18:00:48.756Z,99.90
2017-10-03T18:03:16.229Z,99.90
2017-10-03T18:05:43.705Z,99.90
2017-10-03T18:08:11.939Z,99.90
2017-10-03T18:10:39.408Z,99.90
2017-10-03T18:13:06.869Z,99.90
2017-10-03T18:15:34.607Z,99.90
2017-10-03T18:18:02.062Z,99.90
2017-10-03T18:20:29.533Z,99.90
2017-10-03T18:22:57.000Z,99.90
2017-10-03T18:25:25.269Z,99.90
2017-10-03T18:27:52.738Z,99.90
2017-10-03T18:30:20.220Z,99.90
2017-10-03T18:32:47.716Z,99.90
2017-10-03T18:35:15.968Z,99.90
2017-10-03T18:37:43.452Z,99.90
2017-10-03T18:40:10.923Z,99.90
2017-10-03T18:42:39.213Z,99.90
2017-10-03T18:45:06.735Z,99.90
2017-10-03T18:47:35.027Z,99.90
2017-10-03T18:50:03.303Z,99.90
2017-10-03T18:52:31.549Z,99.90
2017-10-03T18:54:59.030Z,99.90
2017-10-03T18:57:26.501Z,99.90
2017-10-03T18:59:54.767Z,99.90
2017-10-03T19:02:23.010Z,99.90
2017-10-03T19:04:50.544Z,99.90
2017-10-03T19:07:18.096Z,99.90
2017-10-03T19:09:45.598Z,99.90
2017-10-03T19:12:13.059Z,99.90
2017-10-03T19:14:40.553Z,99.90
2017-10-03T19:17:08.819Z,99.90
2017-10-03T19:19:37.075Z,99.90
2017-10-03T19:22:04.571Z,99.90
2017-10-03T19:24:32.059Z,99.90
2017-10-03T19:26:59.543Z,99.90
2017-10-03T19:29:27.125Z,99.90
2017-10-03T19:31:54.584Z,99.90
2017-10-03T19:34:22.143Z,99.90
2017-10-03T19:36:49.698Z,99.90
2017-10-03T19:39:17.155Z,99.90
2017-10-03T19:41:44.714Z,99.90
2017-10-03T19:44:12.181Z,99.90
2017-10-03T19:46:39.671Z,99.90
2017-10-03T19:49:07.151Z,99.90
2017-10-03T19:51:35.392Z,99.90
2017-10-03T19:54:03.610Z,99.90
2017-10-03T19:56:31.075Z,99.90
2017-10-03T19:58:58.544Z,99.90
2017-10-03T20:01:26.950Z,99.90
2017-10-03T20:03:55.429Z,99.90
2017-10-03T20:06:22.991Z,99.90
2017-10-03T20:08:50.445Z,99.90
2017-10-03T20:11:18.015Z,99.90
2017-10-03T20:13:46.745Z,99.90
2017-10-03T20:16:15.108Z,99.90
2017-10-03T20:18:43.882Z,99.90
2017-10-03T20:21:11.601Z,99.90
2017-10-03T20:23:39.086Z,99.90
2017-10-03T20:26:06.913Z,99.90
2017-10-03T20:28:34.419Z,99.90
2017-10-03T20:31:01.875Z,99.90
2017-10-03T20:33:29.438Z,99.90
2017-10-03T20:35:56.922Z,99.90
2017-10-03T20:38:25.267Z,99.90
2017-10-03T20:40:52.729Z,99.90
2017-10-03T20:43:20.213Z,99.90
2017-10-03T20:45:48.437Z,99.90
2017-10-03T20:48:15.907Z,99.90
2017-10-03T20:50:43.475Z,99.90
2017-10-03T20:53:10.953Z,99.90
2017-10-03T20:55:38.496Z,99.90
2017-10-03T20:58:05.962Z,99.90
2017-10-03T21:00:33.423Z,99.90
2017-10-03T21:03:02.411Z,99.90
2017-10-03T21:05:29.888Z,99.90
2017-10-03T21:07:58.137Z,99.90
2017-10-03T21:10:25.737Z,99.90
2017-10-03T21:12:54.023Z,99.90
2017-10-03T21:15:22.254Z,99.90
2017-10-03T21:17:49.732Z,99.90
2017-10-03T21:20:17.990Z,99.90
2017-10-03T21:22:45.473Z,99.90
2017-10-03T21:25:13.705Z,99.90
2017-10-03T21:27:41.180Z,99.90
2017-10-03T21:30:08.648Z,99.90
2017-10-03T21:32:36.119Z,99.90
2017-10-03T21:35:04.355Z,99.90
2017-10-03T21:37:31.831Z,99.90
2017-10-03T21:39:59.307Z,99.90
2017-10-03T21:42:38.628Z,99.90
2017-10-03T21:45:06.105Z,99.90
2017-10-03T21:47:34.346Z,99.90
2017-10-03T21:50:01.820Z,99.90
2017-10-03T21:52:29.283Z,99.90
2017-10-03T21:54:56.876Z,99.90
2017-10-03T21:57:24.366Z,99.90
2017-10-03T21:59:51.840Z,99.90
2017-10-03T22:02:19.307Z,99.90
2017-10-03T22:04:46.779Z,99.90
2017-10-03T22:07:14.229Z,99.90
2017-10-03T22:09:41.728Z,99.90
2017-10-03T22:12:09.224Z,99.90
2017-10-03T22:14:36.703Z,99.90
2017-10-03T22:17:04.212Z,99.90
2017-10-03T22:19:31.689Z,99.90
2017-10-03T22:21:59.433Z,99.90
2017-10-03T22:24:26.889Z,99.90
2017-10-03T22:26:54.370Z,99.90
2017-10-03T22:29:21.845Z,99.90
2017-10-03T22:31:49.315Z,99.90
2017-10-03T22:34:16.783Z,99.90
2017-10-03T22:36:44.266Z,99.90
2017-10-03T22:39:12.489Z,99.90
2017-10-03T22:41:39.954Z,99.90
2017-10-03T22:44:07.427Z,99.90
2017-10-03T22:46:34.894Z,99.90
2017-10-03T22:49:02.358Z,99.90
2017-10-03T22:51:35.512Z,99.70
2017-10-03T22:54:03.040Z,99.70
2017-10-03T22:56:30.515Z,99.70
2017-10-03T22:58:57.986Z,99.90
2017-10-03T23:01:25.471Z,99.90
2017-10-03T23:03:52.936Z,99.90
2017-10-03T23:06:20.417Z,99.80
2017-10-03T23:08:48.672Z,99.90
2017-10-03T23:11:16.206Z,99.90
2017-10-03T23:13:43.686Z,99.90
2017-10-03T23:16:11.152Z,99.90
2017-10-03T23:18:38.657Z,99.90
2017-10-03T23:21:06.129Z,99.90
2017-10-03T23:23:33.598Z,99.60
2017-10-03T23:26:01.068Z,99.80
2017-10-03T23:28:28.535Z,99.70
2017-10-03T23:30:56.000Z,99.60
2017-10-03T23:33:23.583Z,99.60
2017-10-03T23:35:54.891Z,99.90
2017-10-03T23:38:22.395Z,99.90
2017-10-03T23:40:49.919Z,99.90
2017-10-03T23:43:18.159Z,99.70
2017-10-03T23:45:45.661Z,99.70
2017-10-03T23:48:13.907Z,99.60
2017-10-03T23:50:41.467Z,99.60
2017-10-03T23:53:08.927Z,99.50
2017-10-03T23:55:36.394Z,99.50
2017-10-03T23:58:03.856Z,99.50
